sensor_id;sensor_type;location;lat;lon;timestamp;temperature;humidity
38514;DHT22;24282;48.400;10.808;2023-07-20T00:02:22;21.50;55.70
38514;DHT22;24282;48.400;10.808;2023-07-20T00:04:48;21.50;56.10
38514;DHT22;24282;48.400;10.808;2023-07-20T00:07:13;21.50;56.90
38514;DHT22;24282;48.400;10.808;2023-07-20T00:09:39;21.40;57.30
38514;DHT22;24282;48.400;10.808;2023-07-20T00:12:05;21.50;55.60
38514;DHT22;24282;48.400;10.808;2023-07-20T00:14:31;21.40;56.20
38514;DHT22;24282;48.400;10.808;2023-07-20T00:16:57;21.40;56.20
38514;DHT22;24282;48.400;10.808;2023-07-20T00:19:24;21.40;56.90
38514;DHT22;24282;48.400;10.808;2023-07-20T00:21:50;21.40;57.50
38514;DHT22;24282;48.400;10.808;2023-07-20T00:24:16;21.30;57.10
38514;DHT22;24282;48.400;10.808;2023-07-20T00:26:42;21.30;55.50
38514;DHT22;24282;48.400;10.808;2023-07-20T00:29:08;21.30;55.20
38514;DHT22;24282;48.400;10.808;2023-07-20T00:31:33;21.30;55.40
38514;DHT22;24282;48.400;10.808;2023-07-20T00:34:03;21.30;56.00
38514;DHT22;24282;48.400;10.808;2023-07-20T00:36:29;21.20;54.40
38514;DHT22;24282;48.400;10.808;2023-07-20T00:38:54;21.20;54.60
38514;DHT22;24282;48.400;10.808;2023-07-20T00:41:20;21.30;54.70
38514;DHT22;24282;48.400;10.808;2023-07-20T00:43:46;21.30;54.00
38514;DHT22;24282;48.400;10.808;2023-07-20T00:46:12;21.20;54.80
38514;DHT22;24282;48.400;10.808;2023-07-20T00:48:40;21.20;54.70
38514;DHT22;24282;48.400;10.808;2023-07-20T00:51:07;21.20;55.80
38514;DHT22;24282;48.400;10.808;2023-07-20T00:53:32;21.10;55.50
38514;DHT22;24282;48.400;10.808;2023-07-20T00:56:00;21.10;56.10
38514;DHT22;24282;48.400;10.808;2023-07-20T00:58:27;21.10;56.10
38514;DHT22;24282;48.400;10.808;2023-07-20T01:00:53;21.00;56.00
38514;DHT22;24282;48.400;10.808;2023-07-20T01:03:19;21.00;56.00
38514;DHT22;24282;48.400;10.808;2023-07-20T01:05:55;21.00;55.50
38514;DHT22;24282;48.400;10.808;2023-07-20T01:08:37;21.00;55.20
38514;DHT22;24282;48.400;10.808;2023-07-20T01:11:54;21.00;55.50
38514;DHT22;24282;48.400;10.808;2023-07-20T01:14:18;21.00;55.00
38514;DHT22;24282;48.400;10.808;2023-07-20T01:16:44;21.00;54.60
38514;DHT22;24282;48.400;10.808;2023-07-20T01:19:10;21.00;54.90
38514;DHT22;24282;48.400;10.808;2023-07-20T01:21:53;20.90;55.50
38514;DHT22;24282;48.400;10.808;2023-07-20T01:32:33;20.90;57.00
38514;DHT22;24282;48.400;10.808;2023-07-20T01:35:01;20.90;56.50
38514;DHT22;24282;48.400;10.808;2023-07-20T01:37:29;20.90;54.80
38514;DHT22;24282;48.400;10.808;2023-07-20T01:39:56;20.90;54.40
38514;DHT22;24282;48.400;10.808;2023-07-20T01:42:22;20.90;54.80
38514;DHT22;24282;48.400;10.808;2023-07-20T01:44:51;20.90;55.40
38514;DHT22;24282;48.400;10.808;2023-07-20T01:47:23;20.80;54.70
38514;DHT22;24282;48.400;10.808;2023-07-20T01:49:48;20.80;55.30
38514;DHT22;24282;48.400;10.808;2023-07-20T01:52:14;20.80;54.90
38514;DHT22;24282;48.400;10.808;2023-07-20T01:54:40;20.70;55.60
38514;DHT22;24282;48.400;10.808;2023-07-20T01:57:06;20.60;57.00
38514;DHT22;24282;48.400;10.808;2023-07-20T01:59:32;20.60;58.00
38514;DHT22;24282;48.400;10.808;2023-07-20T02:01:58;20.60;57.50
38514;DHT22;24282;48.400;10.808;2023-07-20T02:04:23;20.50;56.80
38514;DHT22;24282;48.400;10.808;2023-07-20T02:06:49;20.50;57.30
38514;DHT22;24282;48.400;10.808;2023-07-20T02:09:15;20.50;57.40
38514;DHT22;24282;48.400;10.808;2023-07-20T02:11:40;20.40;58.50
38514;DHT22;24282;48.400;10.808;2023-07-20T02:14:06;20.40;58.60
38514;DHT22;24282;48.400;10.808;2023-07-20T02:16:32;20.40;59.20
38514;DHT22;24282;48.400;10.808;2023-07-20T02:18:58;20.30;59.80
38514;DHT22;24282;48.400;10.808;2023-07-20T02:21:24;20.30;59.20
38514;DHT22;24282;48.400;10.808;2023-07-20T02:23:49;20.30;58.30
38514;DHT22;24282;48.400;10.808;2023-07-20T02:26:16;20.30;58.60
38514;DHT22;24282;48.400;10.808;2023-07-20T02:28:41;20.30;57.30
38514;DHT22;24282;48.400;10.808;2023-07-20T02:31:07;20.30;56.60
38514;DHT22;24282;48.400;10.808;2023-07-20T02:33:33;20.40;56.60
38514;DHT22;24282;48.400;10.808;2023-07-20T02:35:58;20.30;57.10
38514;DHT22;24282;48.400;10.808;2023-07-20T02:38:24;20.30;58.00
38514;DHT22;24282;48.400;10.808;2023-07-20T02:40:50;20.30;57.80
38514;DHT22;24282;48.400;10.808;2023-07-20T02:43:17;20.20;58.50
38514;DHT22;24282;48.400;10.808;2023-07-20T02:45:43;20.10;58.40
38514;DHT22;24282;48.400;10.808;2023-07-20T02:48:09;20.10;58.30
38514;DHT22;24282;48.400;10.808;2023-07-20T02:50:35;20.10;58.30
38514;DHT22;24282;48.400;10.808;2023-07-20T02:53:01;20.10;58.30
38514;DHT22;24282;48.400;10.808;2023-07-20T02:55:27;20.10;58.20
38514;DHT22;24282;48.400;10.808;2023-07-20T02:57:52;20.10;58.50
38514;DHT22;24282;48.400;10.808;2023-07-20T03:00:18;20.00;59.60
38514;DHT22;24282;48.400;10.808;2023-07-20T03:02:46;20.00;58.70
38514;DHT22;24282;48.400;10.808;2023-07-20T03:05:13;20.00;60.20
38514;DHT22;24282;48.400;10.808;2023-07-20T03:07:39;19.90;59.90
38514;DHT22;24282;48.400;10.808;2023-07-20T03:10:06;19.90;59.10
38514;DHT22;24282;48.400;10.808;2023-07-20T03:12:34;19.90;58.00
38514;DHT22;24282;48.400;10.808;2023-07-20T03:15:02;19.90;59.40
38514;DHT22;24282;48.400;10.808;2023-07-20T03:17:28;19.80;60.70
38514;DHT22;24282;48.400;10.808;2023-07-20T03:19:54;19.80;60.30
38514;DHT22;24282;48.400;10.808;2023-07-20T03:22:20;19.80;59.40
38514;DHT22;24282;48.400;10.808;2023-07-20T03:24:47;19.70;60.40
38514;DHT22;24282;48.400;10.808;2023-07-20T03:27:13;19.70;60.00
38514;DHT22;24282;48.400;10.808;2023-07-20T03:29:39;19.70;60.20
38514;DHT22;24282;48.400;10.808;2023-07-20T03:32:05;19.70;60.20
38514;DHT22;24282;48.400;10.808;2023-07-20T03:34:31;19.70;60.60
38514;DHT22;24282;48.400;10.808;2023-07-20T03:36:57;19.60;61.20
38514;DHT22;24282;48.400;10.808;2023-07-20T03:39:26;19.60;61.70
38514;DHT22;24282;48.400;10.808;2023-07-20T03:41:52;19.60;60.90
38514;DHT22;24282;48.400;10.808;2023-07-20T03:44:18;19.60;61.20
38514;DHT22;24282;48.400;10.808;2023-07-20T03:46:43;19.60;61.30
38514;DHT22;24282;48.400;10.808;2023-07-20T03:49:09;19.60;60.90
38514;DHT22;24282;48.400;10.808;2023-07-20T03:51:35;19.60;61.00
38514;DHT22;24282;48.400;10.808;2023-07-20T03:54:01;19.50;58.90
38514;DHT22;24282;48.400;10.808;2023-07-20T03:56:27;19.60;58.00
38514;DHT22;24282;48.400;10.808;2023-07-20T03:58:53;19.50;58.90
38514;DHT22;24282;48.400;10.808;2023-07-20T04:01:19;19.50;59.70
38514;DHT22;24282;48.400;10.808;2023-07-20T04:03:45;19.50;59.20
38514;DHT22;24282;48.400;10.808;2023-07-20T04:06:11;19.50;57.90
38514;DHT22;24282;48.400;10.808;2023-07-20T04:08:36;19.50;58.00
38514;DHT22;24282;48.400;10.808;2023-07-20T04:11:03;19.50;57.70
38514;DHT22;24282;48.400;10.808;2023-07-20T04:13:28;19.50;58.50
38514;DHT22;24282;48.400;10.808;2023-07-20T04:15:54;19.50;56.70
38514;DHT22;24282;48.400;10.808;2023-07-20T04:18:20;19.40;57.10
38514;DHT22;24282;48.400;10.808;2023-07-20T04:20:46;19.40;58.50
38514;DHT22;24282;48.400;10.808;2023-07-20T04:23:12;19.30;56.90
38514;DHT22;24282;48.400;10.808;2023-07-20T04:25:41;19.30;58.30
38514;DHT22;24282;48.400;10.808;2023-07-20T04:28:09;19.20;58.30
38514;DHT22;24282;48.400;10.808;2023-07-20T04:30:38;19.10;58.60
38514;DHT22;24282;48.400;10.808;2023-07-20T04:33:05;19.10;58.20
38514;DHT22;24282;48.400;10.808;2023-07-20T04:36:07;19.10;59.70
38514;DHT22;24282;48.400;10.808;2023-07-20T04:38:35;19.00;58.60
38514;DHT22;24282;48.400;10.808;2023-07-20T04:41:10;19.00;59.00
38514;DHT22;24282;48.400;10.808;2023-07-20T04:43:43;19.00;58.80
38514;DHT22;24282;48.400;10.808;2023-07-20T04:46:11;18.90;59.30
38514;DHT22;24282;48.400;10.808;2023-07-20T04:48:37;18.90;60.00
38514;DHT22;24282;48.400;10.808;2023-07-20T04:51:03;18.90;58.90
38514;DHT22;24282;48.400;10.808;2023-07-20T04:53:29;18.90;59.70
38514;DHT22;24282;48.400;10.808;2023-07-20T04:55:56;18.90;58.70
38514;DHT22;24282;48.400;10.808;2023-07-20T04:58:24;18.90;58.60
38514;DHT22;24282;48.400;10.808;2023-07-20T05:00:51;18.80;59.70
38514;DHT22;24282;48.400;10.808;2023-07-20T05:03:17;18.80;60.40
38514;DHT22;24282;48.400;10.808;2023-07-20T05:05:43;18.80;61.10
38514;DHT22;24282;48.400;10.808;2023-07-20T05:08:10;18.90;59.00
38514;DHT22;24282;48.400;10.808;2023-07-20T05:10:36;19.00;58.50
38514;DHT22;24282;48.400;10.808;2023-07-20T05:13:01;19.00;58.20
38514;DHT22;24282;48.400;10.808;2023-07-20T05:15:27;18.90;59.60
38514;DHT22;24282;48.400;10.808;2023-07-20T05:17:54;19.00;61.10
38514;DHT22;24282;48.400;10.808;2023-07-20T05:20:20;19.00;58.40
38514;DHT22;24282;48.400;10.808;2023-07-20T05:22:46;18.90;59.60
38514;DHT22;24282;48.400;10.808;2023-07-20T05:25:11;19.00;59.20
38514;DHT22;24282;48.400;10.808;2023-07-20T05:27:38;18.90;60.50
38514;DHT22;24282;48.400;10.808;2023-07-20T05:30:05;18.90;61.40
38514;DHT22;24282;48.400;10.808;2023-07-20T05:32:33;18.90;61.00
38514;DHT22;24282;48.400;10.808;2023-07-20T05:34:58;18.90;61.00
38514;DHT22;24282;48.400;10.808;2023-07-20T05:37:24;18.90;61.00
38514;DHT22;24282;48.400;10.808;2023-07-20T05:39:50;19.00;61.00
38514;DHT22;24282;48.400;10.808;2023-07-20T05:42:16;19.10;58.70
38514;DHT22;24282;48.400;10.808;2023-07-20T05:44:42;19.10;59.50
38514;DHT22;24282;48.400;10.808;2023-07-20T05:47:08;19.10;60.20
38514;DHT22;24282;48.400;10.808;2023-07-20T05:49:35;19.10;59.20
38514;DHT22;24282;48.400;10.808;2023-07-20T05:52:01;19.00;60.30
38514;DHT22;24282;48.400;10.808;2023-07-20T05:54:27;19.00;61.30
38514;DHT22;24282;48.400;10.808;2023-07-20T05:56:53;19.00;61.50
38514;DHT22;24282;48.400;10.808;2023-07-20T05:59:19;19.00;61.30
38514;DHT22;24282;48.400;10.808;2023-07-20T06:01:45;19.10;61.00
38514;DHT22;24282;48.400;10.808;2023-07-20T06:04:14;19.10;60.40
38514;DHT22;24282;48.400;10.808;2023-07-20T06:06:39;19.10;60.20
38514;DHT22;24282;48.400;10.808;2023-07-20T06:09:05;19.10;61.00
38514;DHT22;24282;48.400;10.808;2023-07-20T06:11:35;19.20;60.60
38514;DHT22;24282;48.400;10.808;2023-07-20T06:14:01;19.20;60.40
38514;DHT22;24282;48.400;10.808;2023-07-20T06:16:27;19.20;61.10
38514;DHT22;24282;48.400;10.808;2023-07-20T06:18:53;19.30;60.30
38514;DHT22;24282;48.400;10.808;2023-07-20T06:21:18;19.30;61.10
38514;DHT22;24282;48.400;10.808;2023-07-20T06:23:45;19.40;60.40
38514;DHT22;24282;48.400;10.808;2023-07-20T06:26:11;19.40;59.40
38514;DHT22;24282;48.400;10.808;2023-07-20T06:28:37;19.40;61.60
38514;DHT22;24282;48.400;10.808;2023-07-20T06:31:03;19.50;59.40
38514;DHT22;24282;48.400;10.808;2023-07-20T06:33:29;19.50;59.60
38514;DHT22;24282;48.400;10.808;2023-07-20T06:35:55;19.60;59.80
38514;DHT22;24282;48.400;10.808;2023-07-20T06:38:23;19.50;61.00
38514;DHT22;24282;48.400;10.808;2023-07-20T06:40:49;19.60;58.40
38514;DHT22;24282;48.400;10.808;2023-07-20T06:43:16;19.60;58.40
38514;DHT22;24282;48.400;10.808;2023-07-20T06:45:42;19.60;60.60
38514;DHT22;24282;48.400;10.808;2023-07-20T06:48:08;19.70;59.10
38514;DHT22;24282;48.400;10.808;2023-07-20T06:50:33;19.70;59.30
38514;DHT22;24282;48.400;10.808;2023-07-20T06:53:00;19.80;59.10
38514;DHT22;24282;48.400;10.808;2023-07-20T06:55:26;19.80;60.90
38514;DHT22;24282;48.400;10.808;2023-07-20T06:57:52;19.80;59.10
38514;DHT22;24282;48.400;10.808;2023-07-20T07:00:18;19.90;60.30
38514;DHT22;24282;48.400;10.808;2023-07-20T07:02:44;19.90;59.10
38514;DHT22;24282;48.400;10.808;2023-07-20T07:05:09;19.90;59.30
38514;DHT22;24282;48.400;10.808;2023-07-20T07:07:35;19.90;59.90
38514;DHT22;24282;48.400;10.808;2023-07-20T07:10:01;19.90;60.80
38514;DHT22;24282;48.400;10.808;2023-07-20T07:12:29;19.90;61.50
38514;DHT22;24282;48.400;10.808;2023-07-20T07:14:54;19.90;61.70
38514;DHT22;24282;48.400;10.808;2023-07-20T07:17:20;20.00;61.60
38514;DHT22;24282;48.400;10.808;2023-07-20T07:19:46;20.10;61.40
38514;DHT22;24282;48.400;10.808;2023-07-20T07:22:11;20.10;58.40
38514;DHT22;24282;48.400;10.808;2023-07-20T07:24:37;20.20;58.50
38514;DHT22;24282;48.400;10.808;2023-07-20T07:27:03;20.20;59.20
38514;DHT22;24282;48.400;10.808;2023-07-20T07:29:29;20.20;58.90
38514;DHT22;24282;48.400;10.808;2023-07-20T07:31:55;20.30;59.60
38514;DHT22;24282;48.400;10.808;2023-07-20T07:34:21;20.30;56.90
38514;DHT22;24282;48.400;10.808;2023-07-20T07:36:46;20.30;57.20
38514;DHT22;24282;48.400;10.808;2023-07-20T07:39:12;20.30;58.50
38514;DHT22;24282;48.400;10.808;2023-07-20T07:41:38;20.40;57.50
38514;DHT22;24282;48.400;10.808;2023-07-20T07:44:04;20.30;57.60
38514;DHT22;24282;48.400;10.808;2023-07-20T07:46:30;20.30;57.70
38514;DHT22;24282;48.400;10.808;2023-07-20T07:48:56;20.40;58.50
38514;DHT22;24282;48.400;10.808;2023-07-20T07:51:21;20.40;58.60
38514;DHT22;24282;48.400;10.808;2023-07-20T07:53:47;20.40;57.00
38514;DHT22;24282;48.400;10.808;2023-07-20T07:56:14;20.40;58.50
38514;DHT22;24282;48.400;10.808;2023-07-20T07:58:40;20.50;58.70
38514;DHT22;24282;48.400;10.808;2023-07-20T08:01:06;20.60;59.40
38514;DHT22;24282;48.400;10.808;2023-07-20T08:03:31;20.70;58.40
38514;DHT22;24282;48.400;10.808;2023-07-20T08:05:57;20.70;57.00
38514;DHT22;24282;48.400;10.808;2023-07-20T08:08:25;20.80;55.90
38514;DHT22;24282;48.400;10.808;2023-07-20T08:10:54;20.80;55.00
38514;DHT22;24282;48.400;10.808;2023-07-20T08:13:20;20.90;55.30
38514;DHT22;24282;48.400;10.808;2023-07-20T08:15:49;20.90;54.70
38514;DHT22;24282;48.400;10.808;2023-07-20T08:18:16;20.90;53.90
38514;DHT22;24282;48.400;10.808;2023-07-20T08:20:45;21.00;54.30
38514;DHT22;24282;48.400;10.808;2023-07-20T08:23:12;21.20;54.70
38514;DHT22;24282;48.400;10.808;2023-07-20T08:25:38;21.30;53.30
38514;DHT22;24282;48.400;10.808;2023-07-20T08:28:07;21.40;53.60
38514;DHT22;24282;48.400;10.808;2023-07-20T08:30:46;21.70;54.30
38514;DHT22;24282;48.400;10.808;2023-07-20T08:33:16;21.90;51.70
38514;DHT22;24282;48.400;10.808;2023-07-20T08:35:43;22.00;52.70
38514;DHT22;24282;48.400;10.808;2023-07-20T08:38:09;22.20;51.30
38514;DHT22;24282;48.400;10.808;2023-07-20T08:40:40;22.30;51.40
38514;DHT22;24282;48.400;10.808;2023-07-20T08:43:06;22.30;51.40
38514;DHT22;24282;48.400;10.808;2023-07-20T08:45:36;22.40;51.00
38514;DHT22;24282;48.400;10.808;2023-07-20T08:48:05;22.50;50.00
38514;DHT22;24282;48.400;10.808;2023-07-20T08:50:32;22.60;50.50
38514;DHT22;24282;48.400;10.808;2023-07-20T08:52:59;22.80;50.70
38514;DHT22;24282;48.400;10.808;2023-07-20T08:55:28;22.90;50.60
38514;DHT22;24282;48.400;10.808;2023-07-20T08:57:55;23.10;46.70
38514;DHT22;24282;48.400;10.808;2023-07-20T09:00:22;23.00;46.10
38514;DHT22;24282;48.400;10.808;2023-07-20T09:02:53;23.10;46.70
38514;DHT22;24282;48.400;10.808;2023-07-20T09:05:20;23.20;46.30
38514;DHT22;24282;48.400;10.808;2023-07-20T09:07:46;23.30;48.80
38514;DHT22;24282;48.400;10.808;2023-07-20T09:10:12;23.40;47.30
38514;DHT22;24282;48.400;10.808;2023-07-20T09:12:40;23.50;46.70
38514;DHT22;24282;48.400;10.808;2023-07-20T09:15:06;23.50;45.80
38514;DHT22;24282;48.400;10.808;2023-07-20T09:17:33;23.60;46.20
38514;DHT22;24282;48.400;10.808;2023-07-20T09:20:03;23.70;46.10
38514;DHT22;24282;48.400;10.808;2023-07-20T09:22:34;23.60;46.70
38514;DHT22;24282;48.400;10.808;2023-07-20T09:25:00;23.70;48.50
38514;DHT22;24282;48.400;10.808;2023-07-20T09:27:39;23.80;47.40
38514;DHT22;24282;48.400;10.808;2023-07-20T09:30:05;23.90;46.40
38514;DHT22;24282;48.400;10.808;2023-07-20T09:32:44;23.90;46.10
38514;DHT22;24282;48.400;10.808;2023-07-20T09:35:14;23.90;46.20
38514;DHT22;24282;48.400;10.808;2023-07-20T09:37:52;24.10;47.10
38514;DHT22;24282;48.400;10.808;2023-07-20T09:40:19;24.20;46.10
38514;DHT22;24282;48.400;10.808;2023-07-20T09:42:45;24.30;47.00
38514;DHT22;24282;48.400;10.808;2023-07-20T09:45:12;24.40;47.10
38514;DHT22;24282;48.400;10.808;2023-07-20T09:47:38;24.50;44.70
38514;DHT22;24282;48.400;10.808;2023-07-20T09:50:05;24.60;45.40
38514;DHT22;24282;48.400;10.808;2023-07-20T09:52:45;24.70;43.30
38514;DHT22;24282;48.400;10.808;2023-07-20T09:55:12;24.50;45.10
38514;DHT22;24282;48.400;10.808;2023-07-20T09:57:38;24.40;45.90
38514;DHT22;24282;48.400;10.808;2023-07-20T10:00:06;24.40;44.30
38514;DHT22;24282;48.400;10.808;2023-07-20T10:02:44;24.50;45.30
38514;DHT22;24282;48.400;10.808;2023-07-20T10:05:14;24.60;44.90
38514;DHT22;24282;48.400;10.808;2023-07-20T10:07:47;24.70;43.80
38514;DHT22;24282;48.400;10.808;2023-07-20T10:10:14;24.70;44.20
38514;DHT22;24282;48.400;10.808;2023-07-20T10:12:41;24.60;43.80
38514;DHT22;24282;48.400;10.808;2023-07-20T10:15:40;24.50;44.30
38514;DHT22;24282;48.400;10.808;2023-07-20T10:18:22;24.60;44.90
38514;DHT22;24282;48.400;10.808;2023-07-20T10:20:51;24.80;43.80
38514;DHT22;24282;48.400;10.808;2023-07-20T10:23:17;25.00;44.10
38514;DHT22;24282;48.400;10.808;2023-07-20T10:25:43;25.20;43.90
38514;DHT22;24282;48.400;10.808;2023-07-20T10:28:11;25.10;43.10
38514;DHT22;24282;48.400;10.808;2023-07-20T10:30:37;24.70;43.10
38514;DHT22;24282;48.400;10.808;2023-07-20T10:33:04;24.40;45.40
38514;DHT22;24282;48.400;10.808;2023-07-20T10:35:50;24.30;44.80
38514;DHT22;24282;48.400;10.808;2023-07-20T10:38:16;24.20;45.00
38514;DHT22;24282;48.400;10.808;2023-07-20T10:40:41;24.00;46.10
38514;DHT22;24282;48.400;10.808;2023-07-20T10:43:09;23.90;46.10
38514;DHT22;24282;48.400;10.808;2023-07-20T10:48:05;23.90;44.80
38514;DHT22;24282;48.400;10.808;2023-07-20T10:50:32;23.80;45.90
38514;DHT22;24282;48.400;10.808;2023-07-20T10:53:18;23.90;46.30
38514;DHT22;24282;48.400;10.808;2023-07-20T10:55:44;24.00;47.30
38514;DHT22;24282;48.400;10.808;2023-07-20T10:58:13;23.90;47.10
38514;DHT22;24282;48.400;10.808;2023-07-20T11:01:01;23.80;46.60
38514;DHT22;24282;48.400;10.808;2023-07-20T11:03:32;23.80;46.60
38514;DHT22;24282;48.400;10.808;2023-07-20T11:05:58;23.70;47.40
38514;DHT22;24282;48.400;10.808;2023-07-20T11:08:40;23.60;45.90
38514;DHT22;24282;48.400;10.808;2023-07-20T11:11:22;23.40;47.10
38514;DHT22;24282;48.400;10.808;2023-07-20T11:13:57;23.30;49.30
38514;DHT22;24282;48.400;10.808;2023-07-20T11:16:46;23.30;48.20
38514;DHT22;24282;48.400;10.808;2023-07-20T11:19:16;23.30;48.70
38514;DHT22;24282;48.400;10.808;2023-07-20T11:21:44;23.20;49.60
38514;DHT22;24282;48.400;10.808;2023-07-20T11:24:10;23.20;48.80
38514;DHT22;24282;48.400;10.808;2023-07-20T11:26:41;23.20;48.90
38514;DHT22;24282;48.400;10.808;2023-07-20T11:29:08;23.30;48.20
38514;DHT22;24282;48.400;10.808;2023-07-20T11:31:36;23.30;48.70
38514;DHT22;24282;48.400;10.808;2023-07-20T11:34:02;23.30;46.90
38514;DHT22;24282;48.400;10.808;2023-07-20T11:36:28;23.60;48.30
38514;DHT22;24282;48.400;10.808;2023-07-20T11:38:54;24.00;47.80
38514;DHT22;24282;48.400;10.808;2023-07-20T11:41:19;24.30;46.50
38514;DHT22;24282;48.400;10.808;2023-07-20T11:43:47;24.60;45.80
38514;DHT22;24282;48.400;10.808;2023-07-20T11:46:13;25.00;46.20
38514;DHT22;24282;48.400;10.808;2023-07-20T11:48:39;25.20;44.50
38514;DHT22;24282;48.400;10.808;2023-07-20T11:51:05;25.50;44.80
38514;DHT22;24282;48.400;10.808;2023-07-20T11:53:31;25.80;43.40
38514;DHT22;24282;48.400;10.808;2023-07-20T11:55:58;26.00;43.60
38514;DHT22;24282;48.400;10.808;2023-07-20T11:58:24;26.00;42.40
38514;DHT22;24282;48.400;10.808;2023-07-20T12:00:54;25.90;43.20
38514;DHT22;24282;48.400;10.808;2023-07-20T12:03:20;25.60;43.30
38514;DHT22;24282;48.400;10.808;2023-07-20T12:05:46;25.40;42.30
38514;DHT22;24282;48.400;10.808;2023-07-20T12:08:12;25.30;42.40
38514;DHT22;24282;48.400;10.808;2023-07-20T12:10:39;25.10;43.30
38514;DHT22;24282;48.400;10.808;2023-07-20T12:13:10;24.90;42.80
38514;DHT22;24282;48.400;10.808;2023-07-20T12:15:36;25.00;43.00
38514;DHT22;24282;48.400;10.808;2023-07-20T12:18:03;25.10;41.70
38514;DHT22;24282;48.400;10.808;2023-07-20T12:23:10;25.10;42.10
38514;DHT22;24282;48.400;10.808;2023-07-20T12:25:44;25.20;42.20
38514;DHT22;24282;48.400;10.808;2023-07-20T12:28:14;25.40;42.60
38514;DHT22;24282;48.400;10.808;2023-07-20T12:30:42;25.60;43.10
38514;DHT22;24282;48.400;10.808;2023-07-20T12:33:08;25.80;40.40
38514;DHT22;24282;48.400;10.808;2023-07-20T12:35:34;25.90;39.70
38514;DHT22;24282;48.400;10.808;2023-07-20T12:38:00;26.20;41.50
38514;DHT22;24282;48.400;10.808;2023-07-20T12:40:26;26.40;42.20
38514;DHT22;24282;48.400;10.808;2023-07-20T12:42:52;26.70;41.60
38514;DHT22;24282;48.400;10.808;2023-07-20T12:45:18;26.80;40.10
38514;DHT22;24282;48.400;10.808;2023-07-20T12:47:44;27.00;38.10
38514;DHT22;24282;48.400;10.808;2023-07-20T12:50:10;27.00;39.70
38514;DHT22;24282;48.400;10.808;2023-07-20T12:52:37;26.80;40.20
38514;DHT22;24282;48.400;10.808;2023-07-20T12:55:04;26.60;39.90
38514;DHT22;24282;48.400;10.808;2023-07-20T12:57:30;26.30;40.20
38514;DHT22;24282;48.400;10.808;2023-07-20T12:59:56;26.10;39.30
38514;DHT22;24282;48.400;10.808;2023-07-20T13:02:22;26.20;39.10
38514;DHT22;24282;48.400;10.808;2023-07-20T13:04:47;26.30;37.80
38514;DHT22;24282;48.400;10.808;2023-07-20T13:07:13;26.30;39.40
38514;DHT22;24282;48.400;10.808;2023-07-20T13:09:39;26.30;39.80
38514;DHT22;24282;48.400;10.808;2023-07-20T13:12:05;26.30;39.10
38514;DHT22;24282;48.400;10.808;2023-07-20T13:14:30;26.40;39.20
38514;DHT22;24282;48.400;10.808;2023-07-20T13:16:56;26.60;39.60
38514;DHT22;24282;48.400;10.808;2023-07-20T13:19:22;26.80;38.20
38514;DHT22;24282;48.400;10.808;2023-07-20T13:21:48;26.90;37.80
38514;DHT22;24282;48.400;10.808;2023-07-20T13:24:13;27.10;38.10
38514;DHT22;24282;48.400;10.808;2023-07-20T13:26:39;27.30;37.30
38514;DHT22;24282;48.400;10.808;2023-07-20T13:29:05;27.40;37.70
38514;DHT22;24282;48.400;10.808;2023-07-20T13:31:31;27.60;37.10
38514;DHT22;24282;48.400;10.808;2023-07-20T13:33:57;27.80;37.30
38514;DHT22;24282;48.400;10.808;2023-07-20T13:36:24;27.90;36.70
38514;DHT22;24282;48.400;10.808;2023-07-20T13:38:49;28.00;36.90
38514;DHT22;24282;48.400;10.808;2023-07-20T13:41:15;28.00;36.40
38514;DHT22;24282;48.400;10.808;2023-07-20T13:43:43;27.90;35.70
38514;DHT22;24282;48.400;10.808;2023-07-20T13:46:10;27.60;36.80
38514;DHT22;24282;48.400;10.808;2023-07-20T13:48:35;27.20;37.00
38514;DHT22;24282;48.400;10.808;2023-07-20T13:51:01;27.00;37.50
38514;DHT22;24282;48.400;10.808;2023-07-20T13:53:27;27.10;39.30
38514;DHT22;24282;48.400;10.808;2023-07-20T13:55:53;27.30;36.50
38514;DHT22;24282;48.400;10.808;2023-07-20T13:58:19;27.50;36.10
38514;DHT22;24282;48.400;10.808;2023-07-20T14:00:44;27.60;35.50
38514;DHT22;24282;48.400;10.808;2023-07-20T14:03:10;27.70;35.30
38514;DHT22;24282;48.400;10.808;2023-07-20T14:05:36;27.80;35.70
38514;DHT22;24282;48.400;10.808;2023-07-20T14:08:02;28.00;36.00
38514;DHT22;24282;48.400;10.808;2023-07-20T14:10:27;28.10;36.30
38514;DHT22;24282;48.400;10.808;2023-07-20T14:12:53;28.20;35.10
38514;DHT22;24282;48.400;10.808;2023-07-20T14:15:19;28.20;34.70
38514;DHT22;24282;48.400;10.808;2023-07-20T14:17:45;28.30;35.10
38514;DHT22;24282;48.400;10.808;2023-07-20T14:20:11;28.30;36.30
38514;DHT22;24282;48.400;10.808;2023-07-20T14:22:37;28.40;36.80
38514;DHT22;24282;48.400;10.808;2023-07-20T14:25:03;28.40;36.60
38514;DHT22;24282;48.400;10.808;2023-07-20T14:27:29;28.40;36.50
38514;DHT22;24282;48.400;10.808;2023-07-20T14:29:55;28.40;34.10
38514;DHT22;24282;48.400;10.808;2023-07-20T14:32:21;28.40;33.40
38514;DHT22;24282;48.400;10.808;2023-07-20T14:34:46;28.30;34.10
38514;DHT22;24282;48.400;10.808;2023-07-20T14:37:12;28.20;34.10
38514;DHT22;24282;48.400;10.808;2023-07-20T14:39:38;28.20;34.00
38514;DHT22;24282;48.400;10.808;2023-07-20T14:42:04;28.20;35.70
38514;DHT22;24282;48.400;10.808;2023-07-20T14:44:30;28.30;35.80
38514;DHT22;24282;48.400;10.808;2023-07-20T14:46:56;28.30;36.20
38514;DHT22;24282;48.400;10.808;2023-07-20T14:49:22;28.10;36.60
38514;DHT22;24282;48.400;10.808;2023-07-20T14:51:51;28.10;35.90
38514;DHT22;24282;48.400;10.808;2023-07-20T14:54:18;28.10;34.90
38514;DHT22;24282;48.400;10.808;2023-07-20T14:56:51;28.10;34.60
38514;DHT22;24282;48.400;10.808;2023-07-20T14:59:22;28.10;35.20
38514;DHT22;24282;48.400;10.808;2023-07-20T15:01:48;28.10;34.60
38514;DHT22;24282;48.400;10.808;2023-07-20T15:04:14;28.10;35.50
38514;DHT22;24282;48.400;10.808;2023-07-20T15:06:41;28.10;35.70
38514;DHT22;24282;48.400;10.808;2023-07-20T15:09:07;28.10;33.50
38514;DHT22;24282;48.400;10.808;2023-07-20T15:11:33;28.00;33.80
38514;DHT22;24282;48.400;10.808;2023-07-20T15:13:59;28.00;34.60
38514;DHT22;24282;48.400;10.808;2023-07-20T15:16:25;28.00;36.10
38514;DHT22;24282;48.400;10.808;2023-07-20T15:18:51;28.00;36.70
38514;DHT22;24282;48.400;10.808;2023-07-20T15:21:17;28.10;37.10
38514;DHT22;24282;48.400;10.808;2023-07-20T15:23:43;28.10;34.40
38514;DHT22;24282;48.400;10.808;2023-07-20T15:26:09;28.10;35.10
38514;DHT22;24282;48.400;10.808;2023-07-20T15:28:37;28.10;35.30
38514;DHT22;24282;48.400;10.808;2023-07-20T15:31:04;28.10;35.20